Weather History for KY19 - March, 2013

Change the Weather History Date:

Friday, March 8, 2013

  Actual Average (KBIS) Record (KBIS)
Temperature  
Mean Temperature 24 °F 26 °F  
Max Temperature 30 °F 36 °F 62 °F (1977)
Min Temperature 17 °F 16 °F -28 °F (1995)
Degree Days  
Heating Degree Days 42 39  
Month to date heating degree days 323  
Since 1 July heating degree days 6754  
Cooling Degree Days 0 0  
Month to date cooling degree days 0  
Year to date cooling degree days 0  
Moisture  
Dew Point 24 °F    
Average Humidity 99    
Maximum Humidity 100    
Minimum Humidity 86    
Precipitation  
Precipitation 0.00 in 0.02 in 0.83 in (2000)
Month to date precipitation 0.19  
Year to date precipitation 1.13  
Snow  
Snow 0.00 in 0.30 in 3.00 in (2002)
Month to date snowfall 2.5  
Since 1 July snowfall 40.0  
Snow Depth -    
Sea Level Pressure  
Sea Level Pressure 30.11 in    
Wind  
Wind Speed 7 mph (NE)    
Max Wind Speed 14 mph    
Max Gust Speed 21 mph    
Visibility 7 miles    
Events      
T = Trace of Precipitation, MM = Missing Value Source: NWS Daily Summary

Daily Weather History Graph

Daily Weather History Graph

Search for Another Location

Airport or City:

Trip Planner

Search our weather history database for the weather conditions in past years. The results will help you decide how hot, cold, wet, or windy it might be!

Date:

Astronomy

Mar. 08, 2013 Rise Set
Actual Time 7:09 AM CST 6:39 PM CST
Civil Twilight 6:39 AM CST 7:10 PM CST
Nautical Twilight 6:04 AM CST 7:45 PM CST
Astronomical Twilight 5:28 AM CST 8:20 PM CST
Moon 5:05 AM CST (3/8) 3:28 PM CST (3/8)
Length of Visible Light 12h 30m
Length of Day
11h 30m
Waning Crescent, 11% of the Moon is Illuminated
Mar 8
Waning Crescent
Mar 11
New
Mar 19
First Quarter
Mar 27
Full
Apr 2
Last Quarter

Hourly Weather History & Observations

Time (CST) Temp. Windchill Dew Point Humidity Pressure Visibility Wind Dir Wind Speed Gust Speed Precip Events Conditions
12:15 AM 21.2 °F 14.9 °F 21.2 °F 100% 30.15 in 6.0 mi SW 4.6 mph - N/A   Scattered Clouds
12:35 AM 23.0 °F 14.7 °F 23.0 °F 100% 30.15 in 8.0 mi WSW 6.9 mph - N/A   Clear
12:55 AM 21.2 °F 14.9 °F 21.2 °F 100% 30.15 in 7.0 mi WSW 4.6 mph - N/A   Clear
1:15 AM 19.4 °F 10.4 °F 19.4 °F 100% 30.15 in 5.0 mi WSW 6.9 mph - N/A   Clear
1:35 AM 19.4 °F 9.5 °F 19.4 °F 100% 30.15 in 5.0 mi WSW 8.1 mph - N/A   Clear
1:55 AM 19.4 °F 10.4 °F 19.4 °F 100% 30.17 in 5.0 mi SW 6.9 mph - N/A   Clear
2:15 AM 17.6 °F 7.3 °F 17.6 °F 100% 30.16 in 5.0 mi West 8.1 mph - N/A   Clear
2:35 AM 17.6 °F 7.3 °F 17.6 °F 100% 30.16 in 5.0 mi West 8.1 mph - N/A   Clear
2:55 AM 17.6 °F 7.3 °F 17.6 °F 100% 30.16 in 7.0 mi WNW 8.1 mph - N/A   Clear
3:15 AM 17.6 °F 8.2 °F 17.6 °F 100% 30.15 in 7.0 mi WNW 6.9 mph - N/A   Clear
3:35 AM 19.4 °F 11.5 °F 19.4 °F 100% 30.14 in 9.0 mi NW 5.8 mph - N/A   Clear
3:55 AM 23.0 °F 14.7 °F 23.0 °F 100% 30.14 in 10.0 mi WNW 6.9 mph - N/A   Clear
4:15 AM 19.4 °F 10.4 °F 19.4 °F 100% 30.13 in 9.0 mi NW 6.9 mph - N/A   Clear
4:35 AM 19.4 °F - 19.4 °F 100% 30.14 in 10.0 mi Calm Calm - N/A   Partly Cloudy
4:55 AM 19.4 °F 12.8 °F 19.4 °F 100% 30.14 in 7.0 mi WNW 4.6 mph - N/A   Mostly Cloudy
5:15 AM 19.4 °F 14.3 °F 19.4 °F 100% 30.14 in 8.0 mi NNW 3.5 mph - N/A   Overcast
5:35 AM 19.4 °F 14.3 °F 19.4 °F 100% 30.14 in 9.0 mi NW 3.5 mph - N/A   Overcast
5:55 AM 19.4 °F 14.3 °F 19.4 °F 100% 30.14 in 10.0 mi NW 3.5 mph - N/A   Overcast
6:15 AM 21.2 °F - 21.2 °F 100% 30.14 in 10.0 mi Calm Calm - N/A   Overcast
6:35 AM 19.4 °F - 19.4 °F 100% 30.14 in 9.0 mi Calm Calm - N/A   Overcast
6:55 AM 19.4 °F 14.3 °F 19.4 °F 100% 30.14 in 8.0 mi WSW 3.5 mph - N/A   Scattered Clouds
7:15 AM 17.6 °F 12.3 °F 17.6 °F 100% 30.15 in 5.0 mi WNW 3.5 mph - N/A   Clear
7:35 AM 17.6 °F 10.7 °F 17.6 °F 100% 30.16 in 7.0 mi WNW 4.6 mph - N/A   Partly Cloudy
7:55 AM 19.4 °F 12.8 °F 19.4 °F 100% 30.16 in 8.0 mi NNW 4.6 mph - N/A   Mostly Cloudy
8:15 AM 19.4 °F 10.4 °F 19.4 °F 100% 30.16 in 7.0 mi North 6.9 mph - N/A   Overcast
8:35 AM 23.0 °F 13.1 °F 23.0 °F 100% 30.16 in 8.0 mi North 9.2 mph - N/A   Overcast
8:55 AM 23.0 °F 14.7 °F 23.0 °F 100% 30.17 in 5.0 mi North 6.9 mph - N/A   Overcast
9:15 AM 23.0 °F 13.1 °F 23.0 °F 100% 30.16 in 2.5 mi North 9.2 mph - N/A   Overcast
9:35 AM 23.0 °F 13.9 °F 23.0 °F 100% 30.16 in 5.0 mi NNE 8.1 mph - N/A   Overcast
9:55 AM 23.0 °F 12.4 °F 23.0 °F 100% 30.16 in 9.0 mi North 10.4 mph - N/A   Overcast
10:15 AM 24.8 °F 17.9 °F 24.8 °F 100% 30.17 in 10.0 mi NE 5.8 mph - N/A   Overcast
10:35 AM 24.8 °F 17.9 °F 24.8 °F 100% 30.18 in 10.0 mi ENE 5.8 mph - N/A   Scattered Clouds
10:55 AM 26.6 °F 21.2 °F 24.8 °F 93% 30.19 in 10.0 mi ESE 4.6 mph - N/A   Partly Cloudy
11:15 AM 26.6 °F 20.0 °F 26.6 °F 100% 30.18 in 9.0 mi East 5.8 mph - N/A   Mostly Cloudy
11:35 AM 28.4 °F 23.3 °F 26.6 °F 93% 30.18 in 8.0 mi SE 4.6 mph - N/A   Mostly Cloudy
11:55 AM 28.4 °F 22.2 °F 26.6 °F 93% 30.18 in 7.0 mi ESE 5.8 mph - N/A   Partly Cloudy
12:15 PM 28.4 °F 24.6 °F 26.6 °F 93% 30.18 in 5.0 mi East 3.5 mph - N/A   Scattered Clouds
12:35 PM 28.4 °F 23.3 °F 26.6 °F 93% 30.18 in 8.0 mi ESE 4.6 mph - N/A   Scattered Clouds
12:55 PM 28.4 °F 24.6 °F 26.6 °F 93% 30.16 in 9.0 mi ENE 3.5 mph - N/A   Partly Cloudy
1:15 PM 28.4 °F 21.2 °F 26.6 °F 93% 30.14 in 9.0 mi ENE 6.9 mph - N/A   Partly Cloudy
1:35 PM 30.2 °F 22.6 °F 26.6 °F 86% 30.14 in 10.0 mi ENE 8.1 mph - N/A   Partly Cloudy
1:55 PM 30.2 °F 22.6 °F 26.6 °F 86% 30.12 in 10.0 mi ENE 8.1 mph - N/A   Mostly Cloudy
2:15 PM 30.2 °F 23.4 °F 26.6 °F 86% 30.11 in 10.0 mi ENE 6.9 mph - N/A   Mostly Cloudy
2:35 PM 30.2 °F 22.6 °F 26.6 °F 86% 30.11 in 10.0 mi ESE 8.1 mph - N/A   Mostly Cloudy
2:55 PM 28.4 °F 21.2 °F 28.4 °F 100% 30.10 in 8.0 mi East 6.9 mph - N/A   Mostly Cloudy
3:15 PM 28.4 °F 19.7 °F 28.4 °F 100% 30.09 in 8.0 mi ENE 9.2 mph - N/A   Overcast
3:35 PM 28.4 °F 20.4 °F 28.4 °F 100% 30.08 in 8.0 mi ENE 8.1 mph - N/A   Mostly Cloudy
3:55 PM 28.4 °F 20.4 °F 28.4 °F 100% 30.08 in 8.0 mi ENE 8.1 mph - N/A   Partly Cloudy
4:15 PM 28.4 °F 19.7 °F 28.4 °F 100% 30.07 in 8.0 mi ENE 9.2 mph - N/A   Partly Cloudy
4:35 PM 28.4 °F 19.7 °F 28.4 °F 100% 30.06 in 8.0 mi ENE 9.2 mph - N/A   Mostly Cloudy
4:55 PM 28.4 °F 19.7 °F 28.4 °F 100% 30.06 in 8.0 mi East 9.2 mph - N/A   Mostly Cloudy
5:15 PM 28.4 °F 21.2 °F 28.4 °F 100% 30.05 in 7.0 mi ENE 6.9 mph - N/A   Scattered Clouds
5:35 PM 28.4 °F 19.7 °F 28.4 °F 100% 30.05 in 8.0 mi ENE 9.2 mph - N/A   Scattered Clouds
5:55 PM 28.4 °F 19.1 °F 28.4 °F 100% 30.04 in 7.0 mi ENE 10.4 mph - N/A   Mostly Cloudy
6:15 PM 28.4 °F 17.5 °F 28.4 °F 100% 30.03 in 6.0 mi ENE 13.8 mph - N/A   Mostly Cloudy
6:35 PM 26.6 °F 15.7 °F 26.6 °F 100% 30.03 in 5.0 mi East 12.7 mph - N/A   Partly Cloudy
6:55 PM 26.6 °F 17.5 °F 26.6 °F 100% 30.03 in 5.0 mi East 9.2 mph - N/A   Mostly Cloudy
7:15 PM 26.6 °F 16.8 °F 26.6 °F 100% 30.03 in 7.0 mi East 10.4 mph - N/A   Overcast
7:35 PM 26.6 °F 15.7 °F 26.6 °F 100% 30.03 in 6.0 mi East 12.7 mph - N/A   Overcast
7:55 PM 24.8 °F 12.9 °F 24.8 °F 100% 30.03 in 6.0 mi East 13.8 mph 20.7 mph N/A   Overcast
8:15 PM 24.8 °F 14.6 °F 24.8 °F 100% 30.03 in 5.0 mi East 10.4 mph - N/A   Overcast
8:35 PM 24.8 °F 14.6 °F 24.8 °F 100% 30.03 in 5.0 mi East 10.4 mph - N/A   Overcast
8:55 PM 24.8 °F 16.1 °F 24.8 °F 100% 30.05 in 5.0 mi East 8.1 mph - N/A   Overcast
9:15 PM 26.6 °F 18.2 °F 26.6 °F 100% 30.04 in 6.0 mi ESE 8.1 mph - N/A   Overcast
9:35 PM 26.6 °F 17.5 °F 26.6 °F 100% 30.05 in 7.0 mi ESE 9.2 mph - N/A   Overcast
9:55 PM 26.6 °F 19.1 °F 26.6 °F 100% 30.04 in 7.0 mi ENE 6.9 mph - N/A   Overcast
10:15 PM 26.6 °F 19.1 °F 26.6 °F 100% 30.04 in 7.0 mi East 6.9 mph - N/A   Overcast
10:35 PM 26.6 °F 17.5 °F 26.6 °F 100% 30.03 in 7.0 mi ENE 9.2 mph - N/A   Overcast
10:55 PM 26.6 °F 16.8 °F 26.6 °F 100% 30.01 in 7.0 mi ENE 10.4 mph - N/A   Overcast
11:15 PM 24.8 °F 15.3 °F 24.8 °F 100% 30.00 in 6.0 mi ENE 9.2 mph - N/A   Overcast
11:35 PM 24.8 °F 14.6 °F 24.8 °F 100% 29.98 in 5.0 mi NE 10.4 mph - N/A   Overcast
11:55 PM 24.8 °F 14.6 °F 24.8 °F 100% 29.97 in 5.0 mi NE 10.4 mph - N/A   Overcast